createdAt,value
2019-03-25T00:01:20.636Z,99.90
2019-03-25T00:03:49.356Z,99.90
2019-03-25T00:06:18.387Z,99.90
2019-03-25T00:08:47.283Z,99.90
2019-03-25T00:11:15.906Z,99.90
2019-03-25T00:13:44.606Z,99.90
2019-03-25T00:16:13.356Z,99.90
2019-03-25T00:18:42.071Z,99.90
2019-03-25T00:21:10.652Z,99.90
2019-03-25T00:23:39.423Z,99.90
2019-03-25T00:26:08.027Z,99.90
2019-03-25T00:28:36.811Z,99.90
2019-03-25T00:31:05.471Z,99.90
2019-03-25T00:33:34.127Z,99.90
2019-03-25T00:36:02.857Z,99.90
2019-03-25T00:38:31.536Z,99.90
2019-03-25T00:41:00.228Z,99.90
2019-03-25T00:43:28.938Z,99.90
2019-03-25T00:45:57.596Z,99.90
2019-03-25T00:48:26.092Z,99.90
2019-03-25T00:50:56.228Z,99.90
2019-03-25T00:53:24.873Z,99.90
2019-03-25T00:55:53.488Z,99.90
2019-03-25T00:58:22.164Z,99.90
2019-03-25T01:00:50.914Z,99.90
2019-03-25T01:03:19.649Z,99.90
2019-03-25T01:05:48.340Z,99.90
2019-03-25T01:08:17.072Z,99.90
2019-03-25T01:10:45.796Z,99.90
2019-03-25T01:13:14.507Z,99.90
2019-03-25T01:15:43.351Z,99.90
2019-03-25T01:18:16.953Z,99.90
2019-03-25T01:20:42.698Z,99.90
2019-03-25T01:23:30.870Z,99.90
2019-03-25T01:25:59.319Z,99.90
2019-03-25T01:28:28.198Z,99.90
2019-03-25T01:30:57.051Z,99.90
2019-03-25T01:33:25.793Z,99.90
2019-03-25T01:35:54.559Z,99.90
2019-03-25T01:38:23.317Z,99.90
2019-03-25T01:40:52.034Z,99.90
2019-03-25T01:43:20.573Z,99.90
2019-03-25T01:45:49.319Z,99.90
2019-03-25T01:48:18.117Z,99.90
2019-03-25T01:50:46.989Z,99.90
2019-03-25T01:53:16.596Z,99.90
2019-03-25T01:55:45.392Z,99.90
2019-03-25T01:58:14.077Z,99.90
2019-03-25T02:00:42.929Z,99.90
2019-03-25T02:03:11.591Z,99.90
2019-03-25T02:05:40.259Z,99.90
2019-03-25T02:08:08.896Z,99.90
2019-03-25T02:10:37.688Z,99.90
2019-03-25T02:13:06.388Z,99.90
2019-03-25T02:15:35.608Z,99.90
2019-03-25T02:18:04.199Z,99.90
2019-03-25T02:20:32.854Z,99.90
2019-03-25T02:23:01.947Z,99.90
2019-03-25T02:25:30.848Z,99.90
2019-03-25T02:27:59.633Z,99.90
2019-03-25T02:30:28.545Z,99.90
2019-03-25T02:32:57.221Z,99.90
2019-03-25T02:35:26.097Z,99.90
2019-03-25T02:37:54.979Z,99.90
2019-03-25T02:40:23.696Z,99.90
2019-03-25T02:42:52.464Z,99.90
2019-03-25T02:45:21.192Z,99.90
2019-03-25T02:47:50.024Z,99.90
2019-03-25T02:50:18.713Z,99.90
2019-03-25T02:52:47.404Z,99.90
2019-03-25T02:55:17.030Z,99.90
2019-03-25T02:57:45.700Z,99.90
2019-03-25T03:00:18.399Z,99.90
2019-03-25T03:02:47.254Z,99.90
2019-03-25T03:05:16.059Z,99.90
2019-03-25T03:07:44.912Z,99.90
2019-03-25T03:10:13.817Z,99.90
2019-03-25T03:12:42.617Z,99.90
2019-03-25T03:15:11.569Z,99.90
2019-03-25T03:17:40.208Z,99.90
2019-03-25T03:20:09.238Z,99.90
2019-03-25T03:22:38.015Z,99.90
2019-03-25T03:25:07.053Z,99.90
2019-03-25T03:27:35.856Z,99.90
2019-03-25T03:30:04.719Z,99.90
2019-03-25T03:32:33.634Z,99.90
2019-03-25T03:35:02.362Z,99.90
2019-03-25T03:37:31.169Z,99.90
2019-03-25T03:39:59.884Z,99.90
2019-03-25T03:42:28.606Z,99.90
2019-03-25T03:44:57.421Z,99.90
2019-03-25T03:47:26.257Z,99.90
2019-03-25T03:49:55.051Z,99.90
2019-03-25T03:52:23.875Z,99.90
2019-03-25T03:54:52.850Z,99.90
2019-03-25T03:57:23.512Z,99.90
2019-03-25T03:59:52.305Z,99.90
2019-03-25T04:02:21.148Z,99.90
2019-03-25T04:04:49.850Z,99.90
2019-03-25T04:07:18.778Z,99.90
2019-03-25T04:09:47.401Z,99.90
2019-03-25T04:12:16.178Z,99.90
2019-03-25T04:14:45.229Z,99.90
2019-03-25T04:17:13.913Z,99.90
2019-03-25T04:19:42.649Z,99.90
2019-03-25T04:22:11.259Z,99.90
2019-03-25T04:24:40.064Z,99.90
2019-03-25T04:27:08.725Z,99.90
2019-03-25T04:29:37.450Z,99.90
2019-03-25T04:32:06.406Z,99.90
2019-03-25T04:34:35.245Z,99.90
2019-03-25T04:37:04.131Z,99.90
2019-03-25T04:39:32.876Z,99.90
2019-03-25T04:42:01.644Z,99.90
2019-03-25T04:44:31.506Z,99.90
2019-03-25T04:47:00.248Z,99.90
2019-03-25T04:49:28.912Z,99.90
2019-03-25T04:51:58.154Z,99.90
2019-03-25T04:54:26.888Z,99.90
2019-03-25T04:56:55.584Z,99.90
2019-03-25T04:59:24.428Z,99.90
2019-03-25T05:01:52.885Z,99.90
2019-03-25T05:04:21.446Z,99.90
2019-03-25T05:06:50.194Z,99.90
2019-03-25T05:09:18.908Z,99.90
2019-03-25T05:11:47.635Z,99.90
2019-03-25T05:14:16.670Z,99.90
2019-03-25T05:16:45.488Z,99.90
2019-03-25T05:19:13.988Z,99.80
2019-03-25T05:21:42.697Z,99.80
2019-03-25T05:24:11.617Z,99.70
2019-03-25T05:26:50.494Z,99.90
2019-03-25T05:29:10.999Z,99.80
2019-03-25T05:31:39.685Z,99.40
2019-03-25T05:34:08.337Z,99.60
2019-03-25T05:36:37.162Z,99.50
2019-03-25T05:39:07.432Z,99.30
2019-03-25T05:41:35.928Z,98.80
2019-03-25T05:44:04.664Z,98.50
2019-03-25T05:46:33.402Z,98.60
2019-03-25T05:49:02.282Z,98.80
2019-03-25T05:51:31.067Z,98.80
2019-03-25T05:53:59.762Z,98.50
2019-03-25T05:56:28.460Z,98.20
2019-03-25T05:58:57.201Z,98.10
2019-03-25T06:01:26.305Z,99.90
2019-03-25T06:03:54.895Z,98.00
2019-03-25T06:06:23.740Z,98.30
2019-03-25T06:08:52.268Z,97.40
2019-03-25T06:11:20.963Z,98.20
2019-03-25T06:13:49.701Z,97.00
2019-03-25T06:16:18.538Z,97.00
2019-03-25T06:18:47.114Z,96.50
2019-03-25T06:21:15.756Z,96.10
2019-03-25T06:23:44.288Z,96.10
2019-03-25T06:26:12.963Z,97.10
2019-03-25T06:28:41.694Z,99.40
2019-03-25T06:31:10.564Z,96.80
2019-03-25T06:33:39.236Z,96.60
2019-03-25T06:36:07.973Z,96.50
2019-03-25T06:38:36.810Z,97.00
2019-03-25T06:41:05.565Z,94.80
2019-03-25T06:43:34.299Z,93.70
2019-03-25T06:46:02.988Z,92.70
2019-03-25T06:48:31.652Z,91.60
2019-03-25T06:51:00.590Z,91.50
2019-03-25T06:53:29.316Z,90.80
2019-03-25T06:55:57.910Z,90.50
2019-03-25T06:58:26.743Z,90.70
2019-03-25T07:00:55.568Z,88.50
2019-03-25T07:03:24.369Z,86.80
2019-03-25T07:05:53.232Z,86.20
2019-03-25T07:08:27.680Z,84.70
2019-03-25T07:10:56.379Z,82.20
2019-03-25T07:13:25.254Z,80.90
2019-03-25T07:15:53.876Z,78.90
2019-03-25T07:18:22.494Z,77.50
2019-03-25T07:20:51.409Z,73.80
2019-03-25T07:23:20.059Z,76.50
2019-03-25T07:25:48.736Z,77.30
2019-03-25T07:28:17.364Z,75.60
2019-03-25T07:30:46.035Z,75.60
2019-03-25T07:33:14.897Z,75.10
2019-03-25T07:35:43.551Z,74.90
2019-03-25T07:38:12.300Z,75.30
2019-03-25T07:40:41.052Z,73.40
2019-03-25T07:43:09.790Z,73.70
2019-03-25T07:45:38.501Z,73.80
2019-03-25T07:48:07.213Z,75.10
2019-03-25T07:50:35.830Z,73.70
2019-03-25T07:53:04.636Z,73.00
2019-03-25T07:55:33.644Z,74.30
2019-03-25T07:58:02.549Z,75.10
2019-03-25T08:00:31.141Z,75.10
2019-03-25T08:03:00.027Z,75.40
2019-03-25T08:05:28.669Z,75.00
2019-03-25T08:07:57.296Z,76.60
2019-03-25T08:10:33.558Z,75.30
2019-03-25T08:13:02.177Z,74.50
2019-03-25T08:15:30.971Z,73.30
2019-03-25T08:17:59.960Z,72.10
2019-03-25T08:20:28.763Z,74.20
2019-03-25T08:22:57.589Z,75.90
2019-03-25T08:25:26.515Z,73.40
2019-03-25T08:27:59.924Z,71.40
2019-03-25T08:30:25.970Z,68.90
2019-03-25T08:32:54.723Z,71.50
2019-03-25T08:35:23.555Z,69.40
2019-03-25T08:37:52.240Z,72.00
2019-03-25T08:40:20.797Z,70.40
2019-03-25T08:42:49.596Z,68.30
2019-03-25T08:45:18.416Z,69.00
2019-03-25T08:47:47.141Z,70.80
2019-03-25T08:50:15.851Z,70.50
2019-03-25T08:52:44.450Z,68.30
2019-03-25T08:55:13.285Z,68.30
2019-03-25T08:57:41.734Z,67.80
2019-03-25T09:00:10.869Z,68.80
2019-03-25T09:02:39.568Z,69.40
2019-03-25T09:05:08.609Z,67.50
2019-03-25T09:07:37.367Z,66.60
2019-03-25T09:10:06.593Z,66.30
2019-03-25T09:12:35.387Z,66.60
2019-03-25T09:15:05.401Z,66.40
2019-03-25T09:17:34.174Z,66.40
2019-03-25T09:20:03.075Z,65.30
2019-03-25T09:22:31.714Z,64.70
2019-03-25T09:25:00.784Z,65.00
2019-03-25T09:27:29.423Z,66.10
2019-03-25T09:29:58.197Z,66.20
2019-03-25T09:32:26.875Z,64.70
2019-03-25T09:34:55.576Z,66.70
2019-03-25T09:37:24.349Z,66.20
2019-03-25T09:39:53.172Z,65.40
2019-03-25T09:42:21.712Z,67.40
2019-03-25T09:44:50.544Z,67.90
2019-03-25T09:47:19.465Z,66.90
2019-03-25T09:49:48.220Z,66.20
2019-03-25T09:52:16.975Z,67.50
2019-03-25T09:54:45.723Z,66.00
2019-03-25T09:57:14.504Z,64.80
2019-03-25T09:59:43.136Z,64.20
2019-03-25T10:02:11.873Z,63.50
2019-03-25T10:04:40.613Z,63.60
2019-03-25T10:07:28.486Z,65.10
2019-03-25T10:09:57.435Z,66.90
2019-03-25T10:12:26.121Z,66.10
2019-03-25T10:14:54.986Z,65.50
2019-03-25T10:17:23.620Z,64.00
2019-03-25T10:19:52.297Z,65.30
2019-03-25T10:22:21.094Z,63.60
2019-03-25T10:24:49.875Z,63.10
2019-03-25T10:27:18.551Z,62.40
2019-03-25T10:29:47.648Z,61.50
2019-03-25T10:32:16.425Z,60.80
2019-03-25T10:34:45.221Z,61.50
2019-03-25T10:37:14.060Z,60.90
2019-03-25T10:39:42.889Z,60.50
2019-03-25T10:42:11.793Z,60.10
2019-03-25T10:44:40.678Z,59.20
2019-03-25T10:47:09.352Z,59.10
2019-03-25T10:49:38.027Z,59.30
2019-03-25T10:52:06.784Z,59.10
2019-03-25T10:54:35.583Z,58.50
2019-03-25T10:57:04.794Z,58.80
2019-03-25T10:59:33.660Z,59.60
2019-03-25T11:02:02.984Z,58.20
2019-03-25T11:04:31.683Z,58.70
2019-03-25T11:07:00.538Z,58.20
2019-03-25T11:09:29.067Z,57.40
2019-03-25T11:11:57.873Z,58.10
2019-03-25T11:14:26.696Z,57.40
2019-03-25T11:16:55.308Z,57.10
2019-03-25T11:19:23.891Z,56.90
2019-03-25T11:21:52.453Z,56.20
2019-03-25T11:24:21.238Z,56.10
2019-03-25T11:26:49.858Z,56.40
2019-03-25T11:29:18.699Z,56.10
2019-03-25T11:31:47.455Z,55.70
2019-03-25T11:34:16.216Z,56.40
2019-03-25T11:36:44.993Z,55.70
2019-03-25T11:39:13.616Z,55.60
2019-03-25T11:41:42.402Z,56.60
2019-03-25T11:44:11.237Z,56.80
2019-03-25T11:46:39.882Z,57.00
2019-03-25T11:49:08.525Z,56.40
2019-03-25T11:51:37.476Z,55.30
2019-03-25T11:54:06.313Z,57.70
2019-03-25T11:56:35.306Z,58.20
2019-03-25T11:59:04.364Z,58.90
2019-03-25T12:01:33.213Z,60.40
2019-03-25T12:04:01.813Z,60.40
2019-03-25T12:06:30.628Z,60.30
2019-03-25T12:08:59.040Z,59.70
2019-03-25T12:11:27.620Z,61.20
2019-03-25T12:13:56.586Z,62.40
2019-03-25T12:16:25.279Z,60.10
2019-03-25T12:18:54.091Z,59.50
2019-03-25T12:21:41.569Z,60.10
2019-03-25T12:24:10.302Z,59.00
2019-03-25T12:26:38.691Z,60.00
2019-03-25T12:29:07.504Z,58.50
2019-03-25T12:31:36.897Z,58.90
2019-03-25T12:34:05.614Z,60.20
2019-03-25T12:36:34.083Z,62.80
2019-03-25T12:39:04.468Z,60.10
2019-03-25T12:41:33.255Z,60.00
2019-03-25T12:44:01.639Z,59.10
2019-03-25T12:46:30.292Z,58.90
2019-03-25T12:48:59.003Z,58.40
2019-03-25T12:51:27.844Z,59.90
2019-03-25T12:53:56.561Z,59.00
2019-03-25T12:56:25.366Z,58.40
2019-03-25T12:58:54.215Z,58.60
2019-03-25T13:01:22.671Z,58.40
2019-03-25T13:03:51.456Z,58.20
2019-03-25T13:06:20.275Z,58.10
2019-03-25T13:08:49.187Z,60.00
2019-03-25T13:11:17.890Z,61.90
2019-03-25T13:13:46.742Z,61.10
2019-03-25T13:16:15.389Z,60.60
2019-03-25T13:18:43.756Z,62.50
2019-03-25T13:21:12.663Z,61.40
2019-03-25T13:23:41.248Z,60.20
2019-03-25T13:26:10.180Z,61.20
2019-03-25T13:28:38.934Z,61.00
2019-03-25T13:31:07.803Z,60.80
2019-03-25T13:33:36.502Z,61.60
2019-03-25T13:36:05.090Z,59.70
2019-03-25T13:38:33.719Z,60.30
2019-03-25T13:41:02.502Z,62.00
2019-03-25T13:43:31.325Z,60.70
2019-03-25T13:46:05.521Z,60.50
2019-03-25T13:48:30.451Z,62.10
2019-03-25T13:50:59.137Z,62.00
2019-03-25T13:53:27.444Z,62.40
2019-03-25T13:55:56.251Z,63.80
2019-03-25T13:58:25.120Z,63.10
2019-03-25T14:00:53.639Z,62.40
2019-03-25T14:03:22.445Z,62.80
2019-03-25T14:05:51.273Z,62.90
2019-03-25T14:08:20.123Z,63.10
2019-03-25T14:10:49.030Z,64.50
2019-03-25T14:13:18.038Z,65.50
2019-03-25T14:15:46.721Z,65.30
2019-03-25T14:18:15.683Z,64.50
2019-03-25T14:20:44.449Z,64.80
2019-03-25T14:23:13.261Z,63.80
2019-03-25T14:25:42.032Z,64.60
2019-03-25T14:28:13.079Z,63.70
2019-03-25T14:30:41.849Z,64.80
2019-03-25T14:33:10.462Z,64.00
2019-03-25T14:35:40.134Z,63.40
2019-03-25T14:38:08.828Z,63.50
2019-03-25T14:40:37.880Z,65.40
2019-03-25T14:43:06.683Z,65.90
2019-03-25T14:45:35.727Z,69.10
2019-03-25T14:48:04.525Z,68.50
2019-03-25T14:50:33.347Z,69.40
2019-03-25T14:53:02.247Z,67.50
2019-03-25T14:55:30.993Z,67.10
2019-03-25T14:57:59.794Z,68.70
2019-03-25T15:00:28.761Z,65.90
2019-03-25T15:02:57.510Z,65.50
2019-03-25T15:05:26.366Z,66.00
2019-03-25T15:07:54.996Z,65.70
2019-03-25T15:10:23.773Z,66.00
2019-03-25T15:12:52.626Z,66.20
2019-03-25T15:15:21.575Z,66.20
2019-03-25T15:17:50.243Z,65.60
2019-03-25T15:20:19.311Z,66.50
2019-03-25T15:22:48.015Z,66.20
2019-03-25T15:25:16.811Z,66.60
2019-03-25T15:27:45.662Z,67.70
2019-03-25T15:30:14.731Z,67.40
2019-03-25T15:32:43.480Z,67.00
2019-03-25T15:35:12.542Z,68.30
2019-03-25T15:37:41.308Z,70.10
2019-03-25T15:40:10.694Z,68.90
2019-03-25T15:42:39.468Z,69.80
2019-03-25T15:45:09.417Z,70.40
2019-03-25T15:47:38.325Z,70.60
2019-03-25T15:50:07.759Z,70.60
2019-03-25T15:52:36.681Z,70.60
2019-03-25T15:55:05.735Z,71.10
2019-03-25T15:57:34.614Z,71.90
2019-03-25T16:00:04.277Z,72.60
2019-03-25T16:02:32.862Z,73.00
2019-03-25T16:05:20.507Z,75.80
2019-03-25T16:07:49.129Z,74.40
2019-03-25T16:10:17.930Z,73.70
2019-03-25T16:12:46.913Z,74.70
2019-03-25T16:15:39.777Z,75.70
2019-03-25T16:18:08.618Z,75.70
2019-03-25T16:20:37.351Z,75.80
2019-03-25T16:23:05.947Z,76.10
2019-03-25T16:25:34.605Z,77.00
2019-03-25T16:28:03.540Z,77.80
2019-03-25T16:30:32.294Z,78.30
2019-03-25T16:33:01.187Z,79.70
2019-03-25T16:35:29.918Z,79.50
2019-03-25T16:37:58.689Z,80.00
2019-03-25T16:40:27.513Z,80.40
2019-03-25T16:42:56.235Z,80.30
2019-03-25T16:45:25.255Z,80.90
2019-03-25T16:47:54.082Z,80.20
2019-03-25T16:50:23.109Z,80.70
2019-03-25T16:52:51.840Z,80.90
2019-03-25T16:55:20.636Z,81.00
2019-03-25T16:57:49.414Z,82.80
2019-03-25T17:00:26.902Z,81.10
2019-03-25T17:02:48.229Z,81.00
2019-03-25T17:05:16.794Z,81.20
2019-03-25T17:07:45.527Z,81.00
2019-03-25T17:10:14.664Z,81.30
2019-03-25T17:12:43.435Z,81.10
2019-03-25T17:15:12.639Z,80.40
2019-03-25T17:17:42.272Z,81.20
2019-03-25T17:20:12.275Z,80.30
2019-03-25T17:22:41.347Z,79.10
2019-03-25T17:25:10.936Z,78.90
2019-03-25T17:27:40.339Z,80.50
2019-03-25T17:30:13.471Z,81.50
2019-03-25T17:32:42.442Z,81.60
2019-03-25T17:35:11.337Z,80.70
2019-03-25T17:37:40.376Z,80.00
2019-03-25T17:40:09.179Z,80.20
2019-03-25T17:42:39.160Z,82.00
2019-03-25T17:45:08.836Z,82.00
2019-03-25T17:47:37.657Z,81.40
2019-03-25T17:50:06.999Z,80.80
2019-03-25T17:52:36.390Z,80.00
2019-03-25T17:55:05.911Z,80.60
2019-03-25T17:57:35.350Z,81.40
2019-03-25T18:00:06.953Z,81.60
2019-03-25T18:02:35.559Z,81.90
2019-03-25T18:05:04.602Z,81.60
2019-03-25T18:07:34.113Z,82.80
2019-03-25T18:10:03.630Z,83.30
2019-03-25T18:12:38.755Z,83.80
2019-03-25T18:15:04.368Z,83.30
2019-03-25T18:17:33.080Z,83.20
2019-03-25T18:20:02.553Z,82.90
2019-03-25T18:22:39.498Z,83.40
2019-03-25T18:25:03.638Z,84.30
2019-03-25T18:27:32.335Z,84.20
2019-03-25T18:30:01.796Z,84.40
2019-03-25T18:32:30.534Z,84.80
2019-03-25T18:34:59.477Z,84.90
2019-03-25T18:37:27.891Z,84.70
2019-03-25T18:39:56.491Z,85.10
2019-03-25T18:42:25.336Z,85.50
2019-03-25T18:44:54.511Z,88.20
2019-03-25T18:47:23.735Z,86.80
2019-03-25T18:49:53.418Z,87.30
2019-03-25T18:52:22.164Z,88.00
2019-03-25T18:54:51.838Z,87.80
2019-03-25T18:57:21.311Z,88.60
2019-03-25T18:59:50.484Z,88.60
2019-03-25T19:02:20.232Z,89.90
2019-03-25T19:04:49.650Z,90.50
2019-03-25T19:07:19.313Z,91.10
2019-03-25T19:09:48.271Z,91.90
2019-03-25T19:12:17.921Z,91.80
2019-03-25T19:14:47.238Z,92.20
2019-03-25T19:17:15.912Z,91.90
2019-03-25T19:19:44.567Z,91.90
2019-03-25T19:22:14.082Z,91.50
2019-03-25T19:24:42.882Z,91.80
2019-03-25T19:27:12.126Z,91.60
2019-03-25T19:29:40.727Z,91.50
2019-03-25T19:32:10.611Z,91.00
2019-03-25T19:34:39.954Z,90.80
2019-03-25T19:37:09.459Z,90.80
2019-03-25T19:39:38.274Z,90.60
2019-03-25T19:42:07.736Z,90.20
2019-03-25T19:44:36.994Z,90.10
2019-03-25T19:47:05.665Z,88.80
2019-03-25T19:49:35.178Z,90.30
2019-03-25T19:52:04.921Z,89.70
2019-03-25T19:54:33.733Z,88.70
2019-03-25T19:57:02.921Z,88.10
2019-03-25T19:59:32.147Z,89.30
2019-03-25T20:02:01.664Z,87.60
2019-03-25T20:04:30.277Z,87.90
2019-03-25T20:06:59.060Z,88.00
2019-03-25T20:09:28.313Z,88.70
2019-03-25T20:11:57.667Z,88.20
2019-03-25T20:14:26.412Z,89.80
2019-03-25T20:16:55.384Z,89.20
2019-03-25T20:19:24.937Z,89.30
2019-03-25T20:21:53.801Z,89.80
2019-03-25T20:24:23.664Z,89.70
2019-03-25T20:26:53.129Z,90.20
2019-03-25T20:29:23.600Z,90.30
2019-03-25T20:31:52.866Z,90.80
2019-03-25T20:34:21.500Z,90.40
2019-03-25T20:36:50.357Z,90.70
2019-03-25T20:39:19.470Z,90.40
2019-03-25T20:41:48.307Z,90.10
2019-03-25T20:44:17.253Z,90.40
2019-03-25T20:46:46.342Z,90.40
2019-03-25T20:49:17.787Z,90.60
2019-03-25T20:51:47.274Z,90.80
2019-03-25T20:54:16.122Z,90.70
2019-03-25T20:56:47.023Z,91.40
2019-03-25T20:59:15.713Z,90.70
2019-03-25T21:01:45.280Z,93.80
2019-03-25T21:04:14.672Z,91.70
2019-03-25T21:06:43.969Z,91.60
2019-03-25T21:09:12.655Z,91.30
2019-03-25T21:11:41.457Z,91.30
2019-03-25T21:14:12.005Z,91.20
2019-03-25T21:16:41.534Z,93.10
2019-03-25T21:19:10.549Z,91.40
2019-03-25T21:21:39.509Z,91.50
2019-03-25T21:24:09.121Z,92.50
2019-03-25T21:26:38.482Z,91.20
2019-03-25T21:29:08.158Z,91.30
2019-03-25T21:31:39.019Z,91.20
2019-03-25T21:34:07.730Z,91.50
2019-03-25T21:36:37.648Z,92.60
2019-03-25T21:39:07.808Z,91.40
2019-03-25T21:41:37.118Z,91.80
2019-03-25T21:44:05.736Z,92.30
2019-03-25T21:46:35.417Z,91.10
2019-03-25T21:49:04.393Z,91.20
2019-03-25T21:51:34.161Z,92.20
2019-03-25T21:54:03.526Z,91.80
2019-03-25T21:56:33.135Z,90.90
2019-03-25T21:59:02.749Z,91.20
2019-03-25T22:01:32.318Z,91.00
2019-03-25T22:04:01.980Z,90.90
2019-03-25T22:06:31.503Z,90.80
2019-03-25T22:09:00.970Z,90.70
2019-03-25T22:11:30.339Z,90.80
2019-03-25T22:13:59.492Z,91.40
2019-03-25T22:16:28.104Z,91.40
2019-03-25T22:18:56.766Z,91.10
2019-03-25T22:21:26.180Z,91.80
2019-03-25T22:23:54.780Z,91.30
2019-03-25T22:26:24.410Z,91.40
2019-03-25T22:28:53.199Z,91.10
2019-03-25T22:31:22.377Z,91.40
2019-03-25T22:33:51.124Z,91.10
2019-03-25T22:36:20.778Z,90.80
2019-03-25T22:38:50.424Z,90.80
2019-03-25T22:41:19.076Z,90.70
2019-03-25T22:43:48.428Z,91.00
2019-03-25T22:46:17.767Z,90.70
2019-03-25T22:48:47.153Z,91.00
2019-03-25T22:51:15.879Z,91.10
2019-03-25T22:53:44.686Z,90.80
2019-03-25T22:56:13.379Z,90.70
2019-03-25T22:58:42.035Z,90.70
2019-03-25T23:01:10.611Z,90.60
2019-03-25T23:03:39.848Z,90.60
2019-03-25T23:06:08.470Z,90.30
2019-03-25T23:08:37.283Z,90.30
2019-03-25T23:11:06.272Z,90.30
2019-03-25T23:13:34.938Z,90.40
2019-03-25T23:16:03.719Z,90.40
2019-03-25T23:18:32.841Z,90.30
2019-03-25T23:21:01.618Z,90.20
2019-03-25T23:23:30.410Z,90.90
2019-03-25T23:25:59.251Z,90.20
2019-03-25T23:28:27.758Z,90.30
2019-03-25T23:30:56.666Z,90.20
2019-03-25T23:33:26.387Z,90.00
2019-03-25T23:35:55.058Z,90.00
2019-03-25T23:38:23.672Z,90.60
2019-03-25T23:40:52.391Z,89.70
2019-03-25T23:43:20.918Z,90.00
2019-03-25T23:45:49.686Z,89.50
2019-03-25T23:48:18.348Z,89.50
2019-03-25T23:50:46.862Z,89.90
2019-03-25T23:53:15.678Z,89.90
2019-03-25T23:55:45.437Z,90.50
2019-03-25T23:58:14.036Z,90.10
